sensor_id;sensor_type;location;lat;lon;timestamp;P1;durP1;ratioP1;P2;durP2;ratioP2
40012;SDS011;37387;42.672;23.334;2022-11-27T00:00:02;46.6;;;21.9;;
40012;SDS011;37387;42.672;23.334;2022-11-27T00:01:07;42.9;;;22.6;;
40012;SDS011;37387;42.672;23.334;2022-11-27T00:02:01;44.9;;;22.1;;
40012;SDS011;37387;42.672;23.334;2022-11-27T00:03:01;43.9;;;22.5;;
40012;SDS011;37387;42.672;23.334;2022-11-27T00:04:02;44.0;;;22.6;;
40012;SDS011;37387;42.672;23.334;2022-11-27T00:05:01;42.8;;;22.9;;
40012;SDS011;37387;42.672;23.334;2022-11-27T00:06:01;45.8;;;22.6;;
40012;SDS011;37387;42.672;23.334;2022-11-27T00:07:01;45.4;;;22.4;;
40012;SDS011;37387;42.672;23.334;2022-11-27T00:09:02;43.5;;;23.4;;
40012;SDS011;37387;42.672;23.334;2022-11-27T00:10:00;47.3;;;22.6;;
40012;SDS011;37387;42.672;23.334;2022-11-27T00:11:04;45.5;;;23.3;;
40012;SDS011;37387;42.672;23.334;2022-11-27T00:12:00;45.5;;;22.5;;
40012;SDS011;37387;42.672;23.334;2022-11-27T00:14:00;43.4;;;22.4;;
40012;SDS011;37387;42.672;23.334;2022-11-27T00:15:00;43.4;;;23.0;;
40012;SDS011;37387;42.672;23.334;2022-11-27T00:16:00;45.6;;;22.6;;
40012;SDS011;37387;42.672;23.334;2022-11-27T00:16:59;43.2;;;23.0;;
40012;SDS011;37387;42.672;23.334;2022-11-27T00:17:59;45.7;;;22.3;;
40012;SDS011;37387;42.672;23.334;2022-11-27T00:18:59;42.1;;;22.9;;
40012;SDS011;37387;42.672;23.334;2022-11-27T00:19:59;47.8;;;22.4;;
40012;SDS011;37387;42.672;23.334;2022-11-27T00:21:01;43.8;;;23.0;;
40012;SDS011;37387;42.672;23.334;2022-11-27T00:21:59;47.0;;;23.1;;
40012;SDS011;37387;42.672;23.334;2022-11-27T00:22:59;47.0;;;22.9;;
40012;SDS011;37387;42.672;23.334;2022-11-27T00:24:58;47.6;;;22.1;;
40012;SDS011;37387;42.672;23.334;2022-11-27T00:25:58;44.0;;;22.0;;
40012;SDS011;37387;42.672;23.334;2022-11-27T00:26:58;44.0;;;22.6;;
40012;SDS011;37387;42.672;23.334;2022-11-27T00:27:58;42.6;;;23.1;;
40012;SDS011;37387;42.672;23.334;2022-11-27T00:28:59;42.4;;;22.2;;
40012;SDS011;37387;42.672;23.334;2022-11-27T00:29:58;42.5;;;22.3;;
40012;SDS011;37387;42.672;23.334;2022-11-27T00:30:58;43.3;;;22.0;;
40012;SDS011;37387;42.672;23.334;2022-11-27T00:31:58;42.5;;;21.2;;
40012;SDS011;37387;42.672;23.334;2022-11-27T00:32:57;42.5;;;22.1;;
40012;SDS011;37387;42.672;23.334;2022-11-27T00:33:58;45.5;;;22.7;;
40012;SDS011;37387;42.672;23.334;2022-11-27T00:34:57;45.5;;;23.4;;
40012;SDS011;37387;42.672;23.334;2022-11-27T00:36:00;45.8;;;23.2;;
40012;SDS011;37387;42.672;23.334;2022-11-27T00:36:57;46.6;;;24.5;;
40012;SDS011;37387;42.672;23.334;2022-11-27T00:37:57;44.5;;;23.6;;
40012;SDS011;37387;42.672;23.334;2022-11-27T00:38:57;46.9;;;23.1;;
40012;SDS011;37387;42.672;23.334;2022-11-27T00:39:57;44.0;;;24.2;;
40012;SDS011;37387;42.672;23.334;2022-11-27T00:40:57;49.0;;;23.9;;
40012;SDS011;37387;42.672;23.334;2022-11-27T00:41:56;47.9;;;24.3;;
40012;SDS011;37387;42.672;23.334;2022-11-27T00:42:56;47.9;;;26.1;;
40012;SDS011;37387;42.672;23.334;2022-11-27T00:43:56;52.7;;;26.6;;
40012;SDS011;37387;42.672;23.334;2022-11-27T00:44:56;53.3;;;28.2;;
40012;SDS011;37387;42.672;23.334;2022-11-27T00:45:56;58.7;;;30.2;;
40012;SDS011;37387;42.672;23.334;2022-11-27T00:46:56;61.0;;;31.0;;
40012;SDS011;37387;42.672;23.334;2022-11-27T00:47:56;61.6;;;30.5;;
40012;SDS011;37387;42.672;23.334;2022-11-27T00:48:56;64.2;;;31.7;;
40012;SDS011;37387;42.672;23.334;2022-11-27T00:49:55;61.3;;;30.4;;
40012;SDS011;37387;42.672;23.334;2022-11-27T00:50:57;62.4;;;30.9;;
40012;SDS011;37387;42.672;23.334;2022-11-27T00:51:55;53.8;;;28.1;;
40012;SDS011;37387;42.672;23.334;2022-11-27T00:52:55;53.8;;;27.6;;
40012;SDS011;37387;42.672;23.334;2022-11-27T00:53:55;61.5;;;29.4;;
40012;SDS011;37387;42.672;23.334;2022-11-27T00:54:55;61.5;;;32.0;;
40012;SDS011;37387;42.672;23.334;2022-11-27T00:55:55;67.9;;;30.0;;
40012;SDS011;37387;42.672;23.334;2022-11-27T00:56:54;59.4;;;31.5;;
40012;SDS011;37387;42.672;23.334;2022-11-27T00:57:54;63.3;;;32.5;;
40012;SDS011;37387;42.672;23.334;2022-11-27T00:58:54;62.9;;;30.8;;
40012;SDS011;37387;42.672;23.334;2022-11-27T00:59:54;60.4;;;32.4;;
40012;SDS011;37387;42.672;23.334;2022-11-27T01:00:54;65.7;;;29.2;;
40012;SDS011;37387;42.672;23.334;2022-11-27T01:01:54;59.5;;;30.1;;
40012;SDS011;37387;42.672;23.334;2022-11-27T01:02:54;59.5;;;31.2;;
40012;SDS011;37387;42.672;23.334;2022-11-27T01:03:53;65.3;;;32.4;;
40012;SDS011;37387;42.672;23.334;2022-11-27T01:04:53;64.9;;;34.0;;
40012;SDS011;37387;42.672;23.334;2022-11-27T01:05:53;70.4;;;32.4;;
40012;SDS011;37387;42.672;23.334;2022-11-27T01:06:53;66.8;;;31.0;;
40012;SDS011;37387;42.672;23.334;2022-11-27T01:07:53;63.7;;;31.4;;
40012;SDS011;37387;42.672;23.334;2022-11-27T01:08:53;65.9;;;31.5;;
40012;SDS011;37387;42.672;23.334;2022-11-27T01:09:53;60.3;;;30.5;;
40012;SDS011;37387;42.672;23.334;2022-11-27T01:10:54;60.3;;;31.8;;
40012;SDS011;37387;42.672;23.334;2022-11-27T01:11:52;63.8;;;31.2;;
40012;SDS011;37387;42.672;23.334;2022-11-27T01:12:52;63.8;;;31.0;;
40012;SDS011;37387;42.672;23.334;2022-11-27T01:13:54;62.8;;;30.8;;
40012;SDS011;37387;42.672;23.334;2022-11-27T01:14:52;63.3;;;29.8;;
40012;SDS011;37387;42.672;23.334;2022-11-27T01:15:57;58.8;;;30.7;;
40012;SDS011;37387;42.672;23.334;2022-11-27T01:16:52;61.6;;;30.4;;
40012;SDS011;37387;42.672;23.334;2022-11-27T01:17:52;58.3;;;30.5;;
40012;SDS011;37387;42.672;23.334;2022-11-27T01:18:53;60.8;;;30.7;;
40012;SDS011;37387;42.672;23.334;2022-11-27T01:19:51;62.2;;;28.9;;
40012;SDS011;37387;42.672;23.334;2022-11-27T01:20:51;57.6;;;30.9;;
40012;SDS011;37387;42.672;23.334;2022-11-27T01:21:51;62.1;;;29.9;;
40012;SDS011;37387;42.672;23.334;2022-11-27T01:22:51;60.0;;;30.6;;
40012;SDS011;37387;42.672;23.334;2022-11-27T01:23:52;57.6;;;29.8;;
40012;SDS011;37387;42.672;23.334;2022-11-27T01:24:51;57.9;;;30.0;;
40012;SDS011;37387;42.672;23.334;2022-11-27T01:26:50;58.6;;;28.6;;
40012;SDS011;37387;42.672;23.334;2022-11-27T01:27:50;55.9;;;30.0;;
40012;SDS011;37387;42.672;23.334;2022-11-27T01:28:50;58.3;;;30.1;;
40012;SDS011;37387;42.672;23.334;2022-11-27T01:29:50;59.2;;;28.8;;
40012;SDS011;37387;42.672;23.334;2022-11-27T01:30:50;59.9;;;28.9;;
40012;SDS011;37387;42.672;23.334;2022-11-27T01:31:50;57.4;;;29.1;;
40012;SDS011;37387;42.672;23.334;2022-11-27T01:32:50;55.0;;;29.3;;
40012;SDS011;37387;42.672;23.334;2022-11-27T01:33:51;60.2;;;29.4;;
40012;SDS011;37387;42.672;23.334;2022-11-27T01:34:49;59.9;;;27.9;;
40012;SDS011;37387;42.672;23.334;2022-11-27T01:35:53;54.8;;;28.7;;
40012;SDS011;37387;42.672;23.334;2022-11-27T01:37:49;58.3;;;27.3;;
40012;SDS011;37387;42.672;23.334;2022-11-27T01:38:49;55.8;;;28.2;;
40012;SDS011;37387;42.672;23.334;2022-11-27T01:39:49;57.7;;;26.2;;
40012;SDS011;37387;42.672;23.334;2022-11-27T01:40:49;48.8;;;27.3;;
40012;SDS011;37387;42.672;23.334;2022-11-27T01:41:48;53.6;;;26.1;;
40012;SDS011;37387;42.672;23.334;2022-11-27T01:42:48;51.6;;;25.9;;
40012;SDS011;37387;42.672;23.334;2022-11-27T01:43:49;52.4;;;27.8;;
40012;SDS011;37387;42.672;23.334;2022-11-27T01:44:50;56.3;;;28.1;;
40012;SDS011;37387;42.672;23.334;2022-11-27T01:45:48;53.5;;;30.1;;
40012;SDS011;37387;42.672;23.334;2022-11-27T01:46:48;58.9;;;29.6;;
40012;SDS011;37387;42.672;23.334;2022-11-27T01:47:48;58.7;;;30.4;;
40012;SDS011;37387;42.672;23.334;2022-11-27T01:48:48;58.7;;;29.4;;
40012;SDS011;37387;42.672;23.334;2022-11-27T01:49:48;58.7;;;29.7;;
40012;SDS011;37387;42.672;23.334;2022-11-27T01:50:47;58.9;;;29.2;;
40012;SDS011;37387;42.672;23.334;2022-11-27T01:51:48;58.9;;;28.8;;
40012;SDS011;37387;42.672;23.334;2022-11-27T01:52:48;54.6;;;29.7;;
40012;SDS011;37387;42.672;23.334;2022-11-27T01:53:47;58.6;;;29.4;;
40012;SDS011;37387;42.672;23.334;2022-11-27T01:54:48;56.0;;;29.2;;
40012;SDS011;37387;42.672;23.334;2022-11-27T01:55:47;56.0;;;29.8;;
40012;SDS011;37387;42.672;23.334;2022-11-27T01:56:47;51.3;;;27.8;;
40012;SDS011;37387;42.672;23.334;2022-11-27T01:57:47;51.3;;;29.4;;
40012;SDS011;37387;42.672;23.334;2022-11-27T01:58:46;56.2;;;28.9;;
40012;SDS011;37387;42.672;23.334;2022-11-27T01:59:47;55.8;;;28.4;;
40012;SDS011;37387;42.672;23.334;2022-11-27T02:00:46;52.4;;;27.7;;
40012;SDS011;37387;42.672;23.334;2022-11-27T02:01:46;52.4;;;29.2;;
40012;SDS011;37387;42.672;23.334;2022-11-27T02:02:46;56.7;;;28.7;;
40012;SDS011;37387;42.672;23.334;2022-11-27T02:03:45;54.4;;;28.4;;
40012;SDS011;37387;42.672;23.334;2022-11-27T02:04:45;57.5;;;27.5;;
40012;SDS011;37387;42.672;23.334;2022-11-27T02:05:45;55.0;;;28.4;;
40012;SDS011;37387;42.672;23.334;2022-11-27T02:06:45;55.0;;;27.8;;
40012;SDS011;37387;42.672;23.334;2022-11-27T02:07:45;52.7;;;28.2;;
40012;SDS011;37387;42.672;23.334;2022-11-27T02:08:45;56.4;;;28.6;;
40012;SDS011;37387;42.672;23.334;2022-11-27T02:09:45;54.9;;;29.1;;
40012;SDS011;37387;42.672;23.334;2022-11-27T02:10:47;55.1;;;27.5;;
40012;SDS011;37387;42.672;23.334;2022-11-27T02:11:47;55.1;;;27.4;;
40012;SDS011;37387;42.672;23.334;2022-11-27T02:12:48;56.0;;;26.5;;
40012;SDS011;37387;42.672;23.334;2022-11-27T02:13:46;54.4;;;26.7;;
40012;SDS011;37387;42.672;23.334;2022-11-27T02:14:47;53.8;;;27.2;;
40012;SDS011;37387;42.672;23.334;2022-11-27T02:15:45;53.8;;;27.6;;
40012;SDS011;37387;42.672;23.334;2022-11-27T02:16:45;52.9;;;27.0;;
40012;SDS011;37387;42.672;23.334;2022-11-27T02:17:45;53.7;;;26.7;;
40012;SDS011;37387;42.672;23.334;2022-11-27T02:18:46;55.2;;;26.6;;
40012;SDS011;37387;42.672;23.334;2022-11-27T02:19:49;55.2;;;27.2;;
40012;SDS011;37387;42.672;23.334;2022-11-27T02:20:46;55.0;;;28.4;;
40012;SDS011;37387;42.672;23.334;2022-11-27T02:21:44;53.8;;;27.3;;
40012;SDS011;37387;42.672;23.334;2022-11-27T02:22:47;54.1;;;26.8;;
40012;SDS011;37387;42.672;23.334;2022-11-27T02:23:53;53.2;;;27.4;;
40012;SDS011;37387;42.672;23.334;2022-11-27T02:24:46;53.2;;;26.9;;
40012;SDS011;37387;42.672;23.334;2022-11-27T02:25:46;51.9;;;27.7;;
40012;SDS011;37387;42.672;23.334;2022-11-27T02:26:50;56.4;;;27.4;;
40012;SDS011;37387;42.672;23.334;2022-11-27T02:27:46;55.6;;;27.1;;
40012;SDS011;37387;42.672;23.334;2022-11-27T02:29:42;50.1;;;26.6;;
40012;SDS011;37387;42.672;23.334;2022-11-27T02:30:43;53.5;;;26.9;;
40012;SDS011;37387;42.672;23.334;2022-11-27T02:31:44;53.6;;;27.2;;
40012;SDS011;37387;42.672;23.334;2022-11-27T02:32:43;55.8;;;26.2;;
40012;SDS011;37387;42.672;23.334;2022-11-27T02:33:42;51.1;;;26.5;;
40012;SDS011;37387;42.672;23.334;2022-11-27T02:34:44;54.6;;;27.4;;
40012;SDS011;37387;42.672;23.334;2022-11-27T02:35:43;55.8;;;26.5;;
40012;SDS011;37387;42.672;23.334;2022-11-27T02:36:42;54.6;;;26.3;;
40012;SDS011;37387;42.672;23.334;2022-11-27T02:37:43;54.1;;;26.1;;
40012;SDS011;37387;42.672;23.334;2022-11-27T02:38:42;54.1;;;25.7;;
40012;SDS011;37387;42.672;23.334;2022-11-27T02:39:42;49.6;;;25.8;;
40012;SDS011;37387;42.672;23.334;2022-11-27T02:40:41;53.4;;;26.1;;
40012;SDS011;37387;42.672;23.334;2022-11-27T02:41:41;53.4;;;26.2;;
40012;SDS011;37387;42.672;23.334;2022-11-27T02:42:41;54.5;;;26.6;;
40012;SDS011;37387;42.672;23.334;2022-11-27T02:43:41;54.9;;;27.5;;
40012;SDS011;37387;42.672;23.334;2022-11-27T02:44:41;55.9;;;25.7;;
40012;SDS011;37387;42.672;23.334;2022-11-27T02:45:40;52.9;;;26.2;;
40012;SDS011;37387;42.672;23.334;2022-11-27T02:46:40;54.4;;;26.9;;
40012;SDS011;37387;42.672;23.334;2022-11-27T02:47:40;57.0;;;26.7;;
40012;SDS011;37387;42.672;23.334;2022-11-27T02:48:42;53.6;;;26.4;;
40012;SDS011;37387;42.672;23.334;2022-11-27T02:49:40;54.2;;;27.0;;
40012;SDS011;37387;42.672;23.334;2022-11-27T02:50:40;59.5;;;26.4;;
40012;SDS011;37387;42.672;23.334;2022-11-27T02:51:40;55.6;;;26.7;;
40012;SDS011;37387;42.672;23.334;2022-11-27T02:52:39;53.5;;;26.3;;
40012;SDS011;37387;42.672;23.334;2022-11-27T02:53:40;53.5;;;25.7;;
40012;SDS011;37387;42.672;23.334;2022-11-27T02:54:39;55.0;;;27.3;;
40012;SDS011;37387;42.672;23.334;2022-11-27T02:55:38;51.7;;;25.7;;
40012;SDS011;37387;42.672;23.334;2022-11-27T02:56:38;51.7;;;25.3;;
40012;SDS011;37387;42.672;23.334;2022-11-27T02:57:38;55.4;;;25.5;;
40012;SDS011;37387;42.672;23.334;2022-11-27T02:58:38;50.4;;;26.3;;
40012;SDS011;37387;42.672;23.334;2022-11-27T02:59:38;53.0;;;25.5;;
40012;SDS011;37387;42.672;23.334;2022-11-27T03:00:38;57.3;;;26.2;;
40012;SDS011;37387;42.672;23.334;2022-11-27T03:01:39;55.1;;;25.7;;
40012;SDS011;37387;42.672;23.334;2022-11-27T03:03:39;54.4;;;25.4;;
40012;SDS011;37387;42.672;23.334;2022-11-27T03:04:38;58.5;;;25.2;;
40012;SDS011;37387;42.672;23.334;2022-11-27T03:05:38;58.1;;;24.9;;
40012;SDS011;37387;42.672;23.334;2022-11-27T03:06:38;53.3;;;25.8;;
40012;SDS011;37387;42.672;23.334;2022-11-27T03:07:38;53.9;;;25.1;;
40012;SDS011;37387;42.672;23.334;2022-11-27T03:08:37;53.2;;;25.6;;
40012;SDS011;37387;42.672;23.334;2022-11-27T03:10:39;55.0;;;26.1;;
40012;SDS011;37387;42.672;23.334;2022-11-27T03:11:36;55.6;;;26.7;;
40012;SDS011;37387;42.672;23.334;2022-11-27T03:12:36;54.6;;;24.9;;
40012;SDS011;37387;42.672;23.334;2022-11-27T03:13:38;52.2;;;25.5;;
40012;SDS011;37387;42.672;23.334;2022-11-27T03:14:36;54.7;;;24.8;;
40012;SDS011;37387;42.672;23.334;2022-11-27T03:15:37;53.4;;;25.3;;
40012;SDS011;37387;42.672;23.334;2022-11-27T03:16:37;58.9;;;26.3;;
40012;SDS011;37387;42.672;23.334;2022-11-27T03:17:40;52.7;;;25.8;;
40012;SDS011;37387;42.672;23.334;2022-11-27T03:18:36;52.7;;;25.5;;
40012;SDS011;37387;42.672;23.334;2022-11-27T03:19:37;49.9;;;24.3;;
40012;SDS011;37387;42.672;23.334;2022-11-27T03:20:36;49.7;;;24.2;;
40012;SDS011;37387;42.672;23.334;2022-11-27T03:21:36;49.3;;;24.3;;
40012;SDS011;37387;42.672;23.334;2022-11-27T03:22:35;52.2;;;24.6;;
40012;SDS011;37387;42.672;23.334;2022-11-27T03:23:35;52.8;;;24.7;;
40012;SDS011;37387;42.672;23.334;2022-11-27T03:24:35;55.0;;;25.1;;
40012;SDS011;37387;42.672;23.334;2022-11-27T03:25:35;57.6;;;25.0;;
40012;SDS011;37387;42.672;23.334;2022-11-27T03:26:35;51.1;;;24.9;;
40012;SDS011;37387;42.672;23.334;2022-11-27T03:27:36;50.7;;;23.6;;
40012;SDS011;37387;42.672;23.334;2022-11-27T03:29:36;51.9;;;24.5;;
40012;SDS011;37387;42.672;23.334;2022-11-27T03:30:34;55.5;;;24.4;;
40012;SDS011;37387;42.672;23.334;2022-11-27T03:31:34;54.8;;;24.1;;
40012;SDS011;37387;42.672;23.334;2022-11-27T03:32:34;54.8;;;24.7;;
40012;SDS011;37387;42.672;23.334;2022-11-27T03:33:34;54.2;;;25.0;;
40012;SDS011;37387;42.672;23.334;2022-11-27T03:35:34;56.9;;;26.5;;
40012;SDS011;37387;42.672;23.334;2022-11-27T03:36:33;57.6;;;24.5;;
40012;SDS011;37387;42.672;23.334;2022-11-27T03:37:33;50.9;;;23.8;;
40012;SDS011;37387;42.672;23.334;2022-11-27T03:38:33;52.9;;;24.4;;
40012;SDS011;37387;42.672;23.334;2022-11-27T03:39:34;52.9;;;24.2;;
40012;SDS011;37387;42.672;23.334;2022-11-27T03:41:35;53.9;;;23.3;;
40012;SDS011;37387;42.672;23.334;2022-11-27T03:42:34;48.2;;;24.7;;
40012;SDS011;37387;42.672;23.334;2022-11-27T03:43:34;52.5;;;23.4;;
40012;SDS011;37387;42.672;23.334;2022-11-27T03:44:34;52.9;;;22.6;;
40012;SDS011;37387;42.672;23.334;2022-11-27T03:45:33;50.2;;;23.3;;
40012;SDS011;37387;42.672;23.334;2022-11-27T03:46:35;50.2;;;24.7;;
40012;SDS011;37387;42.672;23.334;2022-11-27T03:47:36;54.4;;;23.9;;
40012;SDS011;37387;42.672;23.334;2022-11-27T03:48:33;50.9;;;24.9;;
40012;SDS011;37387;42.672;23.334;2022-11-27T03:49:33;51.5;;;24.7;;
40012;SDS011;37387;42.672;23.334;2022-11-27T03:50:34;48.0;;;23.9;;
40012;SDS011;37387;42.672;23.334;2022-11-27T03:51:33;56.5;;;25.1;;
40012;SDS011;37387;42.672;23.334;2022-11-27T03:52:33;56.5;;;25.0;;
40012;SDS011;37387;42.672;23.334;2022-11-27T03:54:33;53.5;;;23.1;;
40012;SDS011;37387;42.672;23.334;2022-11-27T03:55:34;51.5;;;24.4;;
40012;SDS011;37387;42.672;23.334;2022-11-27T03:56:33;50.7;;;23.0;;
40012;SDS011;37387;42.672;23.334;2022-11-27T03:57:32;48.0;;;24.6;;
40012;SDS011;37387;42.672;23.334;2022-11-27T03:58:31;51.8;;;24.4;;
40012;SDS011;37387;42.672;23.334;2022-11-27T03:59:31;51.0;;;23.7;;
40012;SDS011;37387;42.672;23.334;2022-11-27T04:00:31;50.0;;;24.3;;
40012;SDS011;37387;42.672;23.334;2022-11-27T04:01:30;52.8;;;23.6;;
40012;SDS011;37387;42.672;23.334;2022-11-27T04:02:37;50.1;;;23.5;;
40012;SDS011;37387;42.672;23.334;2022-11-27T04:03:30;52.3;;;23.4;;
40012;SDS011;37387;42.672;23.334;2022-11-27T04:04:30;47.1;;;22.9;;
40012;SDS011;37387;42.672;23.334;2022-11-27T04:05:30;47.1;;;23.0;;
40012;SDS011;37387;42.672;23.334;2022-11-27T04:06:30;47.9;;;23.4;;
40012;SDS011;37387;42.672;23.334;2022-11-27T04:07:29;50.7;;;22.3;;
40012;SDS011;37387;42.672;23.334;2022-11-27T04:08:29;50.1;;;22.5;;
40012;SDS011;37387;42.672;23.334;2022-11-27T04:09:29;50.1;;;23.1;;
40012;SDS011;37387;42.672;23.334;2022-11-27T04:10:29;49.9;;;22.0;;
40012;SDS011;37387;42.672;23.334;2022-11-27T04:11:29;50.7;;;23.0;;
40012;SDS011;37387;42.672;23.334;2022-11-27T04:12:29;48.3;;;22.8;;
40012;SDS011;37387;42.672;23.334;2022-11-27T04:13:29;45.4;;;22.9;;
40012;SDS011;37387;42.672;23.334;2022-11-27T04:15:29;48.8;;;23.4;;
40012;SDS011;37387;42.672;23.334;2022-11-27T04:16:29;49.4;;;21.9;;
40012;SDS011;37387;42.672;23.334;2022-11-27T04:17:28;47.4;;;23.3;;
40012;SDS011;37387;42.672;23.334;2022-11-27T04:18:28;47.4;;;21.3;;
40012;SDS011;37387;42.672;23.334;2022-11-27T04:19:28;45.6;;;22.5;;
40012;SDS011;37387;42.672;23.334;2022-11-27T04:20:28;45.6;;;22.0;;
40012;SDS011;37387;42.672;23.334;2022-11-27T04:21:28;44.9;;;22.6;;
40012;SDS011;37387;42.672;23.334;2022-11-27T04:22:28;47.2;;;21.2;;
40012;SDS011;37387;42.672;23.334;2022-11-27T04:23:27;45.4;;;21.5;;
40012;SDS011;37387;42.672;23.334;2022-11-27T04:24:27;45.4;;;20.8;;
40012;SDS011;37387;42.672;23.334;2022-11-27T04:25:27;41.0;;;21.9;;
40012;SDS011;37387;42.672;23.334;2022-11-27T04:26:27;47.6;;;22.5;;
40012;SDS011;37387;42.672;23.334;2022-11-27T04:27:27;45.5;;;20.8;;
40012;SDS011;37387;42.672;23.334;2022-11-27T04:28:27;47.6;;;22.6;;
40012;SDS011;37387;42.672;23.334;2022-11-27T04:29:27;47.6;;;21.7;;
40012;SDS011;37387;42.672;23.334;2022-11-27T04:30:27;40.8;;;20.8;;
40012;SDS011;37387;42.672;23.334;2022-11-27T04:31:26;42.2;;;21.9;;
40012;SDS011;37387;42.672;23.334;2022-11-27T04:32:26;46.0;;;22.4;;
40012;SDS011;37387;42.672;23.334;2022-11-27T04:33:26;43.4;;;21.1;;
40012;SDS011;37387;42.672;23.334;2022-11-27T04:34:26;43.2;;;22.5;;
40012;SDS011;37387;42.672;23.334;2022-11-27T04:35:26;50.1;;;21.5;;
40012;SDS011;37387;42.672;23.334;2022-11-27T04:36:26;43.9;;;21.7;;
40012;SDS011;37387;42.672;23.334;2022-11-27T04:37:26;43.9;;;22.0;;
40012;SDS011;37387;42.672;23.334;2022-11-27T04:38:26;46.1;;;21.2;;
40012;SDS011;37387;42.672;23.334;2022-11-27T04:40:25;42.2;;;23.2;;
40012;SDS011;37387;42.672;23.334;2022-11-27T04:41:25;49.5;;;23.0;;
40012;SDS011;37387;42.672;23.334;2022-11-27T04:42:25;46.5;;;22.9;;
40012;SDS011;37387;42.672;23.334;2022-11-27T04:43:25;46.5;;;22.7;;
40012;SDS011;37387;42.672;23.334;2022-11-27T04:44:25;46.6;;;23.3;;
40012;SDS011;37387;42.672;23.334;2022-11-27T04:45:25;46.6;;;22.0;;
40012;SDS011;37387;42.672;23.334;2022-11-27T04:46:25;43.0;;;21.7;;
40012;SDS011;37387;42.672;23.334;2022-11-27T04:47:25;43.0;;;22.3;;
40012;SDS011;37387;42.672;23.334;2022-11-27T04:48:24;46.2;;;21.5;;
40012;SDS011;37387;42.672;23.334;2022-11-27T04:49:24;45.1;;;22.0;;
40012;SDS011;37387;42.672;23.334;2022-11-27T04:50:24;48.3;;;23.5;;
40012;SDS011;37387;42.672;23.334;2022-11-27T04:51:24;48.3;;;22.9;;
40012;SDS011;37387;42.672;23.334;2022-11-27T04:52:24;48.1;;;23.5;;
40012;SDS011;37387;42.672;23.334;2022-11-27T04:53:24;49.4;;;22.7;;
40012;SDS011;37387;42.672;23.334;2022-11-27T04:54:24;49.8;;;21.9;;
40012;SDS011;37387;42.672;23.334;2022-11-27T04:55:24;45.6;;;23.1;;
40012;SDS011;37387;42.672;23.334;2022-11-27T04:56:23;46.0;;;22.8;;
40012;SDS011;37387;42.672;23.334;2022-11-27T04:57:23;48.6;;;23.3;;
40012;SDS011;37387;42.672;23.334;2022-11-27T04:58:23;48.6;;;23.2;;
40012;SDS011;37387;42.672;23.334;2022-11-27T04:59:23;45.1;;;22.0;;
40012;SDS011;37387;42.672;23.334;2022-11-27T05:01:23;44.2;;;22.3;;
40012;SDS011;37387;42.672;23.334;2022-11-27T05:02:23;50.0;;;23.4;;
40012;SDS011;37387;42.672;23.334;2022-11-27T05:03:22;50.0;;;22.8;;
40012;SDS011;37387;42.672;23.334;2022-11-27T05:04:22;47.9;;;24.3;;
40012;SDS011;37387;42.672;23.334;2022-11-27T05:05:22;48.0;;;23.4;;
40012;SDS011;37387;42.672;23.334;2022-11-27T05:06:22;48.0;;;23.0;;
40012;SDS011;37387;42.672;23.334;2022-11-27T05:07:22;43.8;;;22.5;;
40012;SDS011;37387;42.672;23.334;2022-11-27T05:08:22;47.1;;;23.2;;
40012;SDS011;37387;42.672;23.334;2022-11-27T05:09:22;47.9;;;22.7;;
40012;SDS011;37387;42.672;23.334;2022-11-27T05:10:22;45.5;;;22.8;;
40012;SDS011;37387;42.672;23.334;2022-11-27T05:11:22;45.5;;;23.3;;
40012;SDS011;37387;42.672;23.334;2022-11-27T05:12:21;48.3;;;23.0;;
40012;SDS011;37387;42.672;23.334;2022-11-27T05:13:21;48.0;;;24.9;;
40012;SDS011;37387;42.672;23.334;2022-11-27T05:14:21;50.8;;;24.2;;
40012;SDS011;37387;42.672;23.334;2022-11-27T05:15:21;50.8;;;23.1;;
40012;SDS011;37387;42.672;23.334;2022-11-27T05:16:21;47.7;;;24.0;;
40012;SDS011;37387;42.672;23.334;2022-11-27T05:17:21;51.8;;;25.0;;
40012;SDS011;37387;42.672;23.334;2022-11-27T05:18:21;51.8;;;25.2;;
40012;SDS011;37387;42.672;23.334;2022-11-27T05:19:21;55.1;;;23.9;;
40012;SDS011;37387;42.672;23.334;2022-11-27T05:20:20;48.9;;;25.5;;
40012;SDS011;37387;42.672;23.334;2022-11-27T05:21:20;50.9;;;25.8;;
40012;SDS011;37387;42.672;23.334;2022-11-27T05:22:20;57.1;;;25.1;;
40012;SDS011;37387;42.672;23.334;2022-11-27T05:24:21;52.3;;;25.3;;
40012;SDS011;37387;42.672;23.334;2022-11-27T05:25:20;53.1;;;24.4;;
40012;SDS011;37387;42.672;23.334;2022-11-27T05:26:20;50.9;;;25.6;;
40012;SDS011;37387;42.672;23.334;2022-11-27T05:27:20;53.9;;;26.7;;
40012;SDS011;37387;42.672;23.334;2022-11-27T05:29:20;54.7;;;26.0;;
40012;SDS011;37387;42.672;23.334;2022-11-27T05:30:19;50.3;;;25.5;;
40012;SDS011;37387;42.672;23.334;2022-11-27T05:31:19;50.3;;;24.5;;
40012;SDS011;37387;42.672;23.334;2022-11-27T05:32:19;51.6;;;24.7;;
40012;SDS011;37387;42.672;23.334;2022-11-27T05:33:19;51.0;;;25.0;;
40012;SDS011;37387;42.672;23.334;2022-11-27T05:34:19;53.4;;;24.7;;
40012;SDS011;37387;42.672;23.334;2022-11-27T05:35:19;57.5;;;25.6;;
40012;SDS011;37387;42.672;23.334;2022-11-27T05:36:19;53.9;;;25.3;;
40012;SDS011;37387;42.672;23.334;2022-11-27T05:37:18;53.4;;;24.8;;
40012;SDS011;37387;42.672;23.334;2022-11-27T05:38:18;49.2;;;25.8;;
40012;SDS011;37387;42.672;23.334;2022-11-27T05:40:18;51.2;;;24.4;;
40012;SDS011;37387;42.672;23.334;2022-11-27T05:41:18;49.0;;;24.1;;
40012;SDS011;37387;42.672;23.334;2022-11-27T05:42:18;54.0;;;24.5;;
40012;SDS011;37387;42.672;23.334;2022-11-27T05:43:18;54.0;;;24.2;;
40012;SDS011;37387;42.672;23.334;2022-11-27T05:44:18;48.8;;;25.9;;
40012;SDS011;37387;42.672;23.334;2022-11-27T05:45:17;58.0;;;25.1;;
40012;SDS011;37387;42.672;23.334;2022-11-27T05:46:19;58.3;;;25.7;;
40012;SDS011;37387;42.672;23.334;2022-11-27T05:47:17;54.9;;;26.1;;
40012;SDS011;37387;42.672;23.334;2022-11-27T05:48:17;53.0;;;25.8;;
40012;SDS011;37387;42.672;23.334;2022-11-27T05:49:17;53.0;;;26.4;;
40012;SDS011;37387;42.672;23.334;2022-11-27T05:50:17;55.9;;;25.5;;
40012;SDS011;37387;42.672;23.334;2022-11-27T05:51:17;50.6;;;24.7;;
40012;SDS011;37387;42.672;23.334;2022-11-27T05:52:16;50.6;;;25.6;;
40012;SDS011;37387;42.672;23.334;2022-11-27T05:53:16;52.1;;;25.2;;
40012;SDS011;37387;42.672;23.334;2022-11-27T05:54:16;52.8;;;26.3;;
40012;SDS011;37387;42.672;23.334;2022-11-27T05:55:16;54.9;;;26.7;;
40012;SDS011;37387;42.672;23.334;2022-11-27T05:56:17;59.9;;;26.9;;
40012;SDS011;37387;42.672;23.334;2022-11-27T05:57:16;58.5;;;26.5;;
40012;SDS011;37387;42.672;23.334;2022-11-27T05:58:16;57.8;;;27.6;;
40012;SDS011;37387;42.672;23.334;2022-11-27T05:59:16;59.8;;;26.1;;
40012;SDS011;37387;42.672;23.334;2022-11-27T06:00:16;59.8;;;27.0;;
40012;SDS011;37387;42.672;23.334;2022-11-27T06:01:16;56.9;;;26.0;;
40012;SDS011;37387;42.672;23.334;2022-11-27T06:02:15;58.0;;;27.0;;
40012;SDS011;37387;42.672;23.334;2022-11-27T06:03:15;58.0;;;26.8;;
40012;SDS011;37387;42.672;23.334;2022-11-27T06:04:15;58.1;;;27.3;;
40012;SDS011;37387;42.672;23.334;2022-11-27T06:06:15;57.8;;;26.1;;
40012;SDS011;37387;42.672;23.334;2022-11-27T06:07:15;57.1;;;26.8;;
40012;SDS011;37387;42.672;23.334;2022-11-27T06:08:14;57.1;;;25.6;;
40012;SDS011;37387;42.672;23.334;2022-11-27T06:09:14;55.4;;;26.9;;
40012;SDS011;37387;42.672;23.334;2022-11-27T06:10:14;56.2;;;27.3;;
40012;SDS011;37387;42.672;23.334;2022-11-27T06:11:15;59.3;;;26.7;;
40012;SDS011;37387;42.672;23.334;2022-11-27T06:12:14;59.5;;;25.7;;
40012;SDS011;37387;42.672;23.334;2022-11-27T06:13:14;53.6;;;25.8;;